createdAt,value
2022-12-15T00:06:48.360Z,99821.63
2022-12-15T00:17:08.750Z,99817.31
2022-12-15T00:27:30.757Z,99836.72
2022-12-15T00:37:51.158Z,99853.16
2022-12-15T00:47:55.267Z,99866.75
2022-12-15T00:58:15.984Z,99880.72
2022-12-15T01:08:37.873Z,99882.97
2022-12-15T01:18:58.286Z,99890.09
2022-12-15T01:29:02.777Z,99907.59
2022-12-15T01:39:05.819Z,99911.97
2022-12-15T01:49:16.913Z,99917.19
2022-12-15T01:59:25.012Z,99898.03
2022-12-15T02:09:29.878Z,99928.34
2022-12-15T02:20:04.074Z,99946.31
2022-12-15T02:30:29.830Z,99960.78
2022-12-15T02:40:33.489Z,99953.47
2022-12-15T02:51:01.779Z,99968.13
2022-12-15T03:01:08.931Z,99974.41
2022-12-15T03:11:13.236Z,99973.78
2022-12-15T03:21:16.306Z,99970.44
2022-12-15T03:41:41.743Z,99972.81
2022-12-15T03:51:46.203Z,99977.31
2022-12-15T04:01:49.839Z,100006.44
2022-12-15T04:11:54.030Z,99999.44
2022-12-15T04:21:58.112Z,99999.84
2022-12-15T04:32:20.579Z,100006.53
2022-12-15T04:42:41.602Z,100001.69
2022-12-15T04:53:03.140Z,100007.31
2022-12-15T05:03:24.305Z,100023.28
2022-12-15T05:13:45.919Z,100039.03
2022-12-15T05:24:06.387Z,100051.13
2022-12-15T05:34:10.606Z,100051.16
2022-12-15T05:44:14.045Z,100067.88
2022-12-15T05:54:20.330Z,100060.09
2022-12-15T06:04:23.493Z,100074.44
2022-12-15T06:14:27.895Z,100087.69
2022-12-15T06:24:30.797Z,100096.69
2022-12-15T06:34:34.890Z,100097.78
2022-12-15T06:44:37.932Z,100106.94
2022-12-15T06:54:42.341Z,100100.88
2022-12-15T07:04:45.557Z,100120.16
2022-12-15T07:14:53.336Z,100113.31
2022-12-15T07:24:56.613Z,100108.59
2022-12-15T07:35:01.002Z,100129.53
2022-12-15T07:45:04.339Z,100140.06
2022-12-15T07:55:09.617Z,100140.56
2022-12-15T08:05:12.436Z,100149.53
2022-12-15T08:15:16.986Z,100154.56
2022-12-15T08:25:20.192Z,100155.88
2022-12-15T08:35:55.331Z,100162.91
2022-12-15T08:45:47.847Z,100168.44
2022-12-15T08:55:54.906Z,100175.22
2022-12-15T09:05:59.131Z,100207.03
2022-12-15T09:16:11.015Z,100215.34
2022-12-15T09:26:15.992Z,100214.41
2022-12-15T09:36:21.725Z,100224.13
2022-12-15T09:46:35.659Z,100224.13
2022-12-15T09:56:49.635Z,100231.59
2022-12-15T10:06:59.809Z,100244.69
2022-12-15T10:17:15.088Z,100243.19
2022-12-15T10:27:32.777Z,100240.16
2022-12-15T10:37:37.808Z,100234.31
2022-12-15T10:47:41.126Z,100238.09
2022-12-15T10:57:59.299Z,100222.91
2022-12-15T11:08:16.638Z,100216.84
2022-12-15T11:18:37.203Z,100217.31
2022-12-15T11:28:42.854Z,100208.38
2022-12-15T11:38:51.604Z,100193.63
2022-12-15T11:49:10.751Z,100202.53
2022-12-15T11:59:33.308Z,100185.06
2022-12-15T12:09:38.746Z,100166.84
2022-12-15T12:19:50.786Z,100153.72
2022-12-15T12:30:00.453Z,100152.34
2022-12-15T12:40:09.179Z,100135.75
2022-12-15T12:50:20.860Z,100142.22
2022-12-15T13:00:27.814Z,100111.63
2022-12-15T13:10:31.112Z,100101.16
2022-12-15T13:20:37.786Z,100087.38
2022-12-15T13:31:23.728Z,100068.88
2022-12-15T13:41:28.254Z,100060.16
2022-12-15T13:51:39.175Z,100041.47
2022-12-15T14:01:52.011Z,100043.72
2022-12-15T14:11:55.634Z,100024.66
2022-12-15T14:22:00.284Z,100003.56
2022-12-15T14:32:04.173Z,100005.34
2022-12-15T14:42:09.320Z,100011.94
2022-12-15T14:52:27.000Z,100008.53
2022-12-15T15:02:31.904Z,100023.53
2022-12-15T15:12:45.337Z,100044.38
2022-12-15T15:23:04.699Z,100061.63
2022-12-15T15:33:09.947Z,100053.75
2022-12-15T15:43:15.136Z,100069.66
2022-12-15T15:53:20.927Z,100078.06
2022-12-15T16:03:25.659Z,100084.94
2022-12-15T16:13:29.325Z,100086.50
2022-12-15T16:23:34.455Z,100098.97
2022-12-15T16:33:37.503Z,100096.56
2022-12-15T16:43:47.712Z,100087.41
2022-12-15T16:53:51.306Z,100095.75
2022-12-15T17:03:57.157Z,100120.25
2022-12-15T17:14:01.172Z,100120.03
2022-12-15T17:24:12.097Z,100134.25
2022-12-15T17:34:26.694Z,100154.88
2022-12-15T17:44:35.684Z,100142.69
2022-12-15T17:54:39.706Z,100135.53
2022-12-15T18:04:44.820Z,100146.41
2022-12-15T18:14:48.019Z,100147.13
2022-12-15T18:24:54.086Z,100140.28
2022-12-15T18:34:57.539Z,100135.75
2022-12-15T18:45:05.799Z,100136.31
2022-12-15T18:55:17.735Z,100136.94
2022-12-15T19:05:29.041Z,100133.63
2022-12-15T19:15:32.528Z,100132.31
2022-12-15T19:25:37.464Z,100128.69
2022-12-15T19:35:42.955Z,100136.63
2022-12-15T19:45:47.483Z,100144.03
2022-12-15T19:55:51.831Z,100134.81
2022-12-15T20:05:57.797Z,100128.69
2022-12-15T20:16:01.070Z,100126.84
2022-12-15T20:26:07.448Z,100120.84
2022-12-15T20:36:15.286Z,100114.03
2022-12-15T20:46:23.603Z,100102.88
2022-12-15T20:56:27.767Z,100106.03
2022-12-15T21:06:32.579Z,100123.94
2022-12-15T21:16:35.759Z,100133.75
2022-12-15T21:26:39.987Z,100131.72
2022-12-15T21:36:46.763Z,100127.00
2022-12-15T21:46:51.654Z,100136.88
2022-12-15T21:56:55.247Z,100150.63
2022-12-15T22:07:00.099Z,100152.34
2022-12-15T22:17:14.060Z,100167.69
2022-12-15T22:27:21.438Z,100169.25
2022-12-15T22:37:24.823Z,100168.78
2022-12-15T22:47:29.656Z,100159.22
2022-12-15T22:57:32.902Z,100159.72
2022-12-15T23:07:40.371Z,100159.56
2022-12-15T23:17:44.001Z,100163.97
2022-12-15T23:27:48.354Z,100178.81
2022-12-15T23:37:51.493Z,100177.84
2022-12-15T23:48:15.747Z,100178.22
2022-12-15T23:58:18.768Z,100181.63
